Terminal Aerodrome Forecast
Issued by NWS Mt. Holly, NJ

Current Version | Previous Version | Text Only | Print | Product List | Glossary On
Versions: 1 2 3 4 5 6 7 8 9 10 11 12 13 14 15 16 17 18 19 20 21
000
FTUS41 KPHI 290912 AAA
TAFRDG
TAF AMD
KRDG 290912Z 2909/3006 VRB03KT P6SM SCT070 BKN150
      TEMPO 2910/2913 4SM BR
     FM291300 27008KT P6SM -SHRA SCT050 BKN150
     FM291700 28012G18KT P6SM -SHRA SCT050 BKN150
     FM292100 32006KT P6SM -SHRA SCT050 BKN150 PROB30 2921/2923 4SM
      TSRA BKN050CB
     FM300100 01004KT P6SM BKN150
     FM300300 04004KT 5SM BR BKN015=

USA.gov is the U.S. government's official web portal to all federal, state and local government web resources and services.